Time;durP1;ratioP1;P1;durP2;ratioP2;P2;SDS_P1;SDS_P2;PMS_P1;PMS_P2;Temp;Humidity;BMP_temperature;BMP_pressure;BME280_temperature;BME280_humidity;BME280_pressure;Samples;Min_cycle;Max_cycle;Signal;HPM_P1;HPM_P2
2023/01/12 00:02:20;;;;;;;45.13;20.23;;;3.90;99.90;;;;;;4979578;28;20204;-75
2023/01/12 00:04:47;;;;;;;41.37;18.97;;;3.90;99.90;;;;;;4978880;28;20260;-75
2023/01/12 00:07:15;;;;;;;48.63;20.87;;;3.90;99.90;;;;;;4996009;28;20231;-77
2023/01/12 00:09:42;;;;;;;47.10;20.17;;;3.80;99.90;;;;;;4995395;28;20293;-77
2023/01/12 00:12:10;;;;;;;46.40;20.00;;;3.90;99.90;;;;;;4996155;28;20204;-76
2023/01/12 00:14:37;;;;;;;43.80;19.97;;;3.90;99.90;;;;;;4994069;28;20201;-73
2023/01/12 00:17:05;;;;;;;43.50;20.03;;;3.80;99.90;;;;;;4995967;28;20202;-74
2023/01/12 00:19:32;;;;;;;47.17;20.57;;;3.90;99.90;;;;;;4994590;28;20201;-75
2023/01/12 00:24:39;;;;;;;41.50;19.83;;;3.90;99.90;;;;;;4995656;28;20530;-72
2023/01/12 00:27:08;;;;;;;46.70;20.43;;;3.80;99.90;;;;;;4995425;28;20227;-74
2023/01/12 00:29:36;;;;;;;43.90;19.77;;;3.90;99.90;;;;;;4978320;28;20201;-73
2023/01/12 00:32:05;;;;;;;46.40;20.87;;;3.90;99.90;;;;;;4978254;28;20204;-74
2023/01/12 00:34:31;;;;;;;47.73;20.77;;;4.10;99.90;;;;;;4978796;28;20621;-75
2023/01/12 00:36:59;;;;;;;43.73;20.10;;;4.00;99.90;;;;;;4993993;28;20253;-73
2023/01/12 00:39:26;;;;;;;44.87;20.70;;;4.00;99.90;;;;;;4978270;28;20683;-75
2023/01/12 00:47:25;;;;;;;44.17;20.53;;;3.90;99.90;;;;;;4978292;28;20336;-76
2023/01/12 00:49:52;;;;;;;45.97;20.37;;;3.80;99.90;;;;;;4962257;28;20650;-74
2023/01/12 00:52:20;;;;;;;46.77;21.83;;;3.80;99.90;;;;;;4976755;28;20197;-77
2023/01/12 00:54:58;;;;;;;48.43;21.17;;;3.80;99.90;;;;;;4979498;28;20256;-75
2023/01/12 00:57:25;;;;;;;47.33;20.57;;;3.80;99.90;;;;;;4972161;28;20240;-80
2023/01/12 00:59:56;;;;;;;46.20;21.43;;;3.90;99.90;;;;;;4959137;28;20202;-83
2023/01/12 01:02:25;;;;;;;47.53;20.63;;;3.90;99.90;;;;;;4975278;28;20233;-79
2023/01/12 01:04:51;;;;;;;45.50;20.90;;;4.10;99.90;;;;;;4959804;28;20205;-79
2023/01/12 01:07:20;;;;;;;43.97;21.03;;;4.00;99.90;;;;;;4958393;28;20232;-83
2023/01/12 01:09:48;;;;;;;45.00;20.87;;;4.00;99.90;;;;;;4975988;28;20186;-81
2023/01/12 01:12:15;;;;;;;43.93;20.47;;;4.00;99.90;;;;;;4958756;28;20206;-74
2023/01/12 01:14:42;;;;;;;44.83;21.57;;;3.90;99.90;;;;;;4958453;28;20574;-76
2023/01/12 01:17:09;;;;;;;46.97;20.60;;;3.90;99.90;;;;;;4976072;28;20235;-78
2023/01/12 01:19:36;;;;;;;47.03;21.00;;;3.90;99.90;;;;;;4975802;28;20223;-78
2023/01/12 01:22:03;;;;;;;46.73;20.80;;;3.90;99.90;;;;;;4957969;28;20207;-76
2023/01/12 01:24:30;;;;;;;47.20;22.10;;;3.90;99.90;;;;;;4957891;28;20252;-76
2023/01/12 01:26:57;;;;;;;48.27;21.53;;;3.90;99.90;;;;;;4974343;28;20229;-78
2023/01/12 01:29:23;;;;;;;48.97;20.97;;;3.90;99.90;;;;;;4958978;28;20198;-77
2023/01/12 01:31:54;;;;;;;46.33;22.13;;;3.90;99.90;;;;;;4957976;28;20262;-75
2023/01/12 01:34:22;;;;;;;47.77;21.77;;;3.80;99.90;;;;;;4957624;28;20278;-74
2023/01/12 01:36:49;;;;;;;46.33;21.70;;;3.80;99.90;;;;;;4973666;28;20203;-79
2023/01/12 01:39:16;;;;;;;50.40;22.53;;;3.80;99.90;;;;;;4957989;28;20312;-75
2023/01/12 01:41:43;;;;;;;47.20;20.73;;;3.90;99.90;;;;;;4974603;28;20209;-77
2023/01/12 01:44:31;;;;;;;50.30;22.47;;;3.90;99.90;;;;;;4974891;28;20194;-74
2023/01/12 01:47:02;;;;;;;45.70;21.53;;;3.90;99.90;;;;;;4973949;28;20309;-79
2023/01/12 01:49:49;;;;;;;50.60;22.00;;;4.00;99.90;;;;;;4973588;28;20205;-78
2023/01/12 01:52:36;;;;;;;48.50;22.07;;;3.90;99.90;;;;;;4973479;28;20652;-74
2023/01/12 01:55:26;;;;;;;50.47;21.33;;;4.00;99.90;;;;;;4973536;28;20620;-72
2023/01/12 01:57:56;;;;;;;45.73;21.47;;;4.00;99.90;;;;;;4985373;28;20272;-77
2023/01/12 02:00:24;;;;;;;48.17;21.70;;;4.00;99.90;;;;;;4977218;28;20560;-76
2023/01/12 02:02:53;;;;;;;48.63;21.23;;;4.10;99.90;;;;;;4993480;28;20221;-79
2023/01/12 02:05:24;;;;;;;50.53;22.17;;;4.10;99.90;;;;;;5009429;28;20280;-79
2023/01/12 02:07:52;;;;;;;46.63;21.87;;;4.00;99.90;;;;;;4994328;28;20621;-76
2023/01/12 02:10:20;;;;;;;45.43;21.83;;;4.10;99.90;;;;;;4995041;28;20209;-78
2023/01/12 02:16:21;;;;;;;49.63;22.27;;;4.00;99.90;;;;;;5009097;28;20600;-76
2023/01/12 02:19:01;;;;;;;50.23;22.10;;;4.00;99.90;;;;;;4930840;29;20274;-75
2023/01/12 02:21:58;;;;;;;44.83;21.20;;;4.10;99.90;;;;;;4930859;29;20235;-74
2023/01/12 02:24:52;;;;;;;48.43;21.50;;;4.00;99.90;;;;;;4915088;29;20211;-76
2023/01/12 02:27:29;;;;;;;48.83;21.97;;;4.00;99.90;;;;;;4930898;29;20650;-75
2023/01/12 02:30:17;;;;;;;53.47;22.70;;;4.00;99.90;;;;;;4915059;29;20260;-80
2023/01/12 02:32:57;;;;;;;50.30;22.23;;;4.00;99.90;;;;;;4914756;29;20232;-74
2023/01/12 02:35:29;;;;;;;50.27;23.10;;;4.00;99.90;;;;;;4930331;29;20213;-76
2023/01/12 02:38:42;;;;;;;55.20;23.63;;;4.00;99.90;;;;;;4914621;29;20204;-77
2023/01/12 02:44:31;;;;;;;48.60;22.30;;;4.10;99.90;;;;;;4915166;29;20362;-74
2023/01/12 02:47:03;;;;;;;57.90;22.97;;;4.10;99.90;;;;;;4931496;29;20218;-79
2023/01/12 02:49:36;;;;;;;51.13;22.63;;;4.10;99.90;;;;;;4914946;29;20213;-80
2023/01/12 02:52:10;;;;;;;47.83;22.27;;;4.20;99.90;;;;;;4914657;29;20211;-80
2023/01/12 02:54:39;;;;;;;50.57;23.60;;;4.20;99.90;;;;;;4925210;28;20240;-79
2023/01/12 02:57:09;;;;;;;51.93;22.00;;;4.30;99.90;;;;;;4994275;28;20239;-82
2023/01/12 02:59:40;;;;;;;51.77;22.53;;;4.30;99.90;;;;;;4993853;28;20216;-81
2023/01/12 03:02:10;;;;;;;47.13;21.53;;;4.30;99.90;;;;;;4992611;28;20231;-79
2023/01/12 03:04:40;;;;;;;50.43;22.80;;;4.30;99.90;;;;;;4976658;28;20224;-77
2023/01/12 03:07:43;;;;;;;51.17;22.23;;;4.30;99.90;;;;;;4992994;28;20225;-79
2023/01/12 03:10:34;;;;;;;51.13;22.30;;;4.30;99.90;;;;;;4993928;28;20575;-73
2023/01/12 03:13:06;;;;;;;49.80;22.00;;;4.30;99.90;;;;;;4994015;28;20277;-81
2023/01/12 03:15:36;;;;;;;43.67;21.77;;;4.30;99.90;;;;;;4979173;28;20295;-82
2023/01/12 03:18:24;;;;;;;49.63;21.93;;;4.20;99.90;;;;;;4996208;28;20201;-84
2023/01/12 03:20:59;;;;;;;51.53;21.97;;;4.20;99.90;;;;;;4971357;28;20617;-73
2023/01/12 03:23:35;;;;;;;48.57;22.23;;;4.30;99.90;;;;;;4997129;28;20235;-78
2023/01/12 03:26:03;;;;;;;52.83;22.07;;;4.40;99.90;;;;;;4980400;28;20190;-76
2023/01/12 03:28:34;;;;;;;49.10;22.87;;;4.40;99.90;;;;;;5011956;28;20233;-73
2023/01/12 03:31:09;;;;;;;50.13;21.43;;;4.40;99.90;;;;;;4996359;28;20202;-84
2023/01/12 03:33:42;;;;;;;50.10;23.10;;;4.40;99.90;;;;;;5013554;28;20545;-73
2023/01/12 03:36:21;;;;;;;53.30;21.87;;;4.40;99.90;;;;;;4978837;28;20621;-73
2023/01/12 03:39:13;;;;;;;50.03;22.03;;;4.40;99.90;;;;;;5011943;28;20199;-73
2023/01/12 03:41:53;;;;;;;48.10;22.33;;;4.40;99.90;;;;;;4997194;28;20640;-75
2023/01/12 03:44:37;;;;;;;49.87;22.10;;;4.40;99.90;;;;;;4986495;28;20229;-83
2023/01/12 03:47:15;;;;;;;47.87;20.80;;;4.50;99.90;;;;;;5018983;28;20227;-75
2023/01/12 03:49:49;;;;;;;47.40;23.03;;;4.50;99.90;;;;;;4979934;28;20562;-85
2023/01/12 03:52:28;;;;;;;51.40;22.03;;;4.50;99.90;;;;;;4979566;28;20200;-75
2023/01/12 03:54:57;;;;;;;43.83;21.03;;;4.50;99.90;;;;;;4963036;28;20203;-78
2023/01/12 03:57:25;;;;;;;49.27;22.33;;;4.60;99.90;;;;;;4996674;28;20588;-80
2023/01/12 03:59:55;;;;;;;46.77;21.60;;;4.60;99.90;;;;;;4995926;28;20210;-83
2023/01/12 04:02:31;;;;;;;48.43;22.57;;;4.70;99.90;;;;;;4979543;28;20705;-74
2023/01/12 04:04:59;;;;;;;53.93;22.83;;;4.60;99.90;;;;;;4978938;28;20206;-73
2023/01/12 04:07:26;;;;;;;47.60;22.13;;;4.70;99.90;;;;;;4994650;28;20222;-73
2023/01/12 04:09:52;;;;;;;44.57;21.67;;;4.70;99.90;;;;;;4994556;28;20197;-73
2023/01/12 04:12:22;;;;;;;48.90;22.57;;;4.70;99.90;;;;;;4978435;28;20202;-74
2023/01/12 04:14:51;;;;;;;49.20;21.43;;;4.70;99.90;;;;;;4994738;28;20198;-74
2023/01/12 04:17:26;;;;;;;50.50;22.37;;;4.80;99.90;;;;;;4979099;28;20232;-82
2023/01/12 04:19:54;;;;;;;52.20;23.13;;;4.80;99.90;;;;;;4995163;28;20191;-83
2023/01/12 04:22:42;;;;;;;50.70;22.80;;;4.80;99.90;;;;;;4995355;28;20595;-75
2023/01/12 04:25:16;;;;;;;49.93;22.63;;;4.90;99.90;;;;;;5011071;28;20204;-81
2023/01/12 04:27:55;;;;;;;48.20;21.93;;;4.90;99.90;;;;;;4980960;28;20219;-80
2023/01/12 04:30:25;;;;;;;46.77;21.90;;;4.90;99.90;;;;;;4996495;28;20257;-80
2023/01/12 04:32:53;;;;;;;45.27;21.73;;;4.90;99.90;;;;;;4995043;28;20196;-77
2023/01/12 04:35:21;;;;;;;44.47;21.07;;;4.90;99.90;;;;;;5011003;28;20241;-80
2023/01/12 04:37:48;;;;;;;45.77;21.13;;;4.90;99.90;;;;;;4978820;28;20201;-82
2023/01/12 04:40:19;;;;;;;49.77;22.07;;;5.00;99.90;;;;;;4979404;28;20227;-84
2023/01/12 04:43:10;;;;;;;48.47;21.63;;;5.00;99.90;;;;;;5011371;28;20192;-83
2023/01/12 04:45:39;;;;;;;42.67;20.23;;;5.10;99.90;;;;;;4995657;28;20204;-74
2023/01/12 04:48:25;;;;;;;45.93;20.57;;;5.00;99.90;;;;;;4978678;28;20232;-72
2023/01/12 04:50:58;;;;;;;45.70;20.77;;;5.20;99.90;;;;;;4995379;28;20197;-84
2023/01/12 04:53:25;;;;;;;44.97;21.37;;;5.20;99.90;;;;;;4994342;28;20205;-74
2023/01/12 04:55:52;;;;;;;45.60;20.73;;;5.10;99.90;;;;;;5010199;28;20537;-76
2023/01/12 04:58:22;;;;;;;44.83;20.93;;;5.20;99.90;;;;;;4978312;28;20256;-77
2023/01/12 05:00:50;;;;;;;47.43;20.90;;;5.20;99.90;;;;;;4978064;28;20221;-74
2023/01/12 05:03:17;;;;;;;46.70;20.43;;;5.30;99.90;;;;;;5010856;28;20210;-85
2023/01/12 05:05:44;;;;;;;42.73;20.07;;;5.30;99.90;;;;;;4978002;28;20295;-79
2023/01/12 05:10:59;;;;;;;46.27;19.70;;;5.40;99.90;;;;;;4995471;28;20201;-75
2023/01/12 05:13:29;;;;;;;41.80;19.43;;;5.50;99.90;;;;;;4978023;28;20199;-73
2023/01/12 05:16:13;;;;;;;41.97;20.07;;;5.50;99.90;;;;;;4995369;28;20196;-72
2023/01/12 05:18:41;;;;;;;41.67;19.43;;;5.60;99.90;;;;;;4995033;28;20201;-72
2023/01/12 05:21:08;;;;;;;42.97;19.53;;;5.60;99.90;;;;;;4994409;28;20205;-84
2023/01/12 05:23:36;;;;;;;40.23;19.77;;;5.60;99.90;;;;;;4995006;28;20313;-82
2023/01/12 05:26:05;;;;;;;41.13;18.80;;;5.60;99.90;;;;;;4994496;28;20195;-80
2023/01/12 05:28:32;;;;;;;39.70;19.13;;;5.70;99.90;;;;;;4994773;28;20569;-76
2023/01/12 05:31:12;;;;;;;40.80;19.10;;;5.70;99.90;;;;;;4961987;28;20735;-74
2023/01/12 05:33:41;;;;;;;42.60;20.23;;;5.70;99.90;;;;;;4978687;28;20274;-76
2023/01/12 05:36:11;;;;;;;39.77;19.60;;;5.70;99.90;;;;;;5009937;28;20255;-73
2023/01/12 05:38:38;;;;;;;40.93;18.93;;;5.70;99.90;;;;;;4978920;28;20605;-82
2023/01/12 05:41:10;;;;;;;39.97;19.93;;;5.70;99.90;;;;;;4993746;28;20612;-75
2023/01/12 05:43:50;;;;;;;41.77;20.10;;;5.80;99.90;;;;;;4961207;28;20198;-71
2023/01/12 05:46:30;;;;;;;46.40;20.10;;;5.80;99.90;;;;;;4992951;28;20206;-72
2023/01/12 05:49:02;;;;;;;41.50;18.60;;;5.80;99.90;;;;;;5009461;28;20328;-75
2023/01/12 05:51:36;;;;;;;37.50;19.17;;;5.80;99.90;;;;;;4976975;28;20193;-72
2023/01/12 05:54:04;;;;;;;40.57;19.63;;;5.80;99.90;;;;;;4994599;28;20609;-72
2023/01/12 05:56:31;;;;;;;41.80;20.00;;;5.80;99.90;;;;;;4977158;28;20203;-79
2023/01/12 05:59:03;;;;;;;41.23;20.73;;;5.80;99.90;;;;;;5009314;28;20230;-81
2023/01/12 06:01:46;;;;;;;37.67;18.87;;;5.90;99.90;;;;;;4992662;28;20200;-83
2023/01/12 06:04:27;;;;;;;41.83;18.93;;;5.90;99.90;;;;;;4993214;28;20222;-80
2023/01/12 06:06:57;;;;;;;42.63;19.90;;;5.90;99.90;;;;;;4992165;28;20273;-71
2023/01/12 06:09:24;;;;;;;36.87;18.60;;;5.90;99.90;;;;;;4993943;28;20221;-72
2023/01/12 06:14:39;;;;;;;40.60;19.00;;;5.90;99.90;;;;;;4992460;28;20685;-75
2023/01/12 06:17:08;;;;;;;39.90;18.40;;;5.90;99.90;;;;;;4994452;28;20208;-81
2023/01/12 06:19:37;;;;;;;40.03;19.20;;;6.10;99.90;;;;;;5010006;28;20629;-73
2023/01/12 06:22:07;;;;;;;38.17;17.93;;;5.90;99.90;;;;;;4992706;28;20193;-79
2023/01/12 06:24:34;;;;;;;38.50;18.93;;;6.00;99.90;;;;;;4977153;28;20202;-73
2023/01/12 06:27:10;;;;;;;40.30;18.67;;;6.00;99.90;;;;;;5008578;28;20202;-72
2023/01/12 06:29:37;;;;;;;39.97;18.80;;;6.00;99.90;;;;;;4992938;28;20316;-77
2023/01/12 06:32:04;;;;;;;38.07;18.80;;;6.00;99.90;;;;;;4993771;28;20565;-77
2023/01/12 06:34:34;;;;;;;41.10;19.00;;;6.00;99.90;;;;;;4993028;28;20276;-76
2023/01/12 06:37:01;;;;;;;40.83;19.77;;;6.10;99.90;;;;;;4992860;28;20590;-75
2023/01/12 06:39:29;;;;;;;42.80;19.37;;;6.10;99.90;;;;;;4976984;28;20632;-78
2023/01/12 06:44:43;;;;;;;40.60;18.90;;;6.10;99.90;;;;;;5008710;28;20214;-79
2023/01/12 06:47:10;;;;;;;36.53;19.00;;;6.20;99.90;;;;;;4992830;28;20327;-82
2023/01/12 06:49:36;;;;;;;40.20;19.50;;;6.10;99.90;;;;;;4993335;28;20631;-80
2023/01/12 06:52:05;;;;;;;43.30;19.93;;;6.30;99.90;;;;;;4980555;28;20193;-81
2023/01/12 06:54:31;;;;;;;38.93;18.20;;;6.20;99.90;;;;;;4996273;28;20213;-77
2023/01/12 06:56:58;;;;;;;40.77;18.93;;;6.30;99.90;;;;;;5012602;28;20333;-73
2023/01/12 06:59:25;;;;;;;40.57;19.63;;;6.30;99.90;;;;;;4997647;28;20216;-74
2023/01/12 07:01:52;;;;;;;44.67;20.03;;;6.20;99.90;;;;;;4995890;28;20219;-75
2023/01/12 07:04:19;;;;;;;41.90;19.20;;;6.20;99.90;;;;;;4979796;28;20199;-76
2023/01/12 07:06:47;;;;;;;38.87;18.23;;;6.30;99.90;;;;;;4980113;28;20202;-81
2023/01/12 07:09:14;;;;;;;39.23;18.03;;;6.30;99.90;;;;;;5013683;28;20627;-74
2023/01/12 07:11:40;;;;;;;43.07;20.27;;;6.20;99.90;;;;;;4998046;28;20222;-83
2023/01/12 07:14:07;;;;;;;43.70;19.13;;;6.30;99.90;;;;;;4997240;28;20223;-76
2023/01/12 07:16:35;;;;;;;42.47;19.70;;;6.30;99.90;;;;;;4996153;28;20189;-75
2023/01/12 07:19:02;;;;;;;42.10;18.90;;;6.30;99.90;;;;;;4997582;28;20540;-75
2023/01/12 07:21:29;;;;;;;44.33;19.10;;;6.30;99.90;;;;;;4979679;28;20635;-75
2023/01/12 07:23:56;;;;;;;41.93;18.60;;;6.50;99.90;;;;;;4997044;28;20261;-85
2023/01/12 07:26:26;;;;;;;42.50;19.13;;;6.40;99.90;;;;;;4961059;28;20561;-81
2023/01/12 07:28:54;;;;;;;40.93;18.87;;;6.40;99.90;;;;;;4978103;28;20573;-81
2023/01/12 07:31:21;;;;;;;46.43;19.33;;;6.40;99.90;;;;;;4976260;28;20210;-83
2023/01/12 07:33:52;;;;;;;44.53;18.80;;;6.50;99.90;;;;;;4977856;28;20207;-87
2023/01/12 07:36:20;;;;;;;42.40;18.80;;;6.50;99.90;;;;;;4976354;28;20246;-83
2023/01/12 07:38:47;;;;;;;43.63;19.00;;;6.50;99.90;;;;;;4976494;28;20195;-78
2023/01/12 07:43:59;;;;;;;40.43;18.50;;;6.50;99.90;;;;;;4975940;28;20566;-82
2023/01/12 07:46:26;;;;;;;41.90;18.53;;;6.60;99.90;;;;;;4977705;28;20194;-80
2023/01/12 07:48:53;;;;;;;37.97;18.60;;;6.50;99.90;;;;;;4976838;28;20229;-81
2023/01/12 07:51:20;;;;;;;40.33;18.37;;;6.60;99.90;;;;;;4976301;28;20190;-82
2023/01/12 07:53:47;;;;;;;41.73;18.83;;;6.50;99.90;;;;;;4976350;28;20556;-83
2023/01/12 07:56:15;;;;;;;43.67;18.87;;;6.60;99.90;;;;;;4976051;28;20289;-82
2023/01/12 07:58:50;;;;;;;38.47;18.03;;;6.60;99.90;;;;;;4976811;28;20238;-81
2023/01/12 08:01:17;;;;;;;39.83;18.40;;;6.60;99.90;;;;;;4975336;28;20648;-82
2023/01/12 08:03:44;;;;;;;39.40;18.43;;;6.60;99.90;;;;;;4975637;28;20199;-82
2023/01/12 08:06:11;;;;;;;36.67;18.10;;;6.60;99.90;;;;;;4976712;28;20186;-84
2023/01/12 08:08:38;;;;;;;35.50;17.23;;;6.60;99.90;;;;;;4975523;28;20226;-83
2023/01/12 08:11:08;;;;;;;34.97;17.73;;;6.70;99.90;;;;;;4976665;28;20216;-80
2023/01/12 08:13:36;;;;;;;35.07;16.30;;;6.60;99.90;;;;;;4975485;28;20193;-80
2023/01/12 08:16:17;;;;;;;35.70;16.57;;;6.60;99.90;;;;;;4977083;28;20188;-82
2023/01/12 08:18:55;;;;;;;37.20;17.00;;;6.60;99.90;;;;;;4975605;28;20207;-75
2023/01/12 08:21:40;;;;;;;33.50;16.63;;;6.60;99.90;;;;;;4976749;28;20242;-77
2023/01/12 08:24:08;;;;;;;33.40;16.93;;;6.70;99.90;;;;;;4977590;28;20249;-76
2023/01/12 08:26:39;;;;;;;35.33;16.03;;;6.80;99.90;;;;;;4975226;28;20563;-76
2023/01/12 08:29:11;;;;;;;36.73;17.37;;;6.70;99.90;;;;;;4959113;28;20583;-73
2023/01/12 08:31:39;;;;;;;33.17;16.37;;;6.80;99.90;;;;;;4958723;28;20206;-77
2023/01/12 08:34:07;;;;;;;32.87;16.43;;;6.80;99.90;;;;;;4959434;28;20638;-73
2023/01/12 08:36:35;;;;;;;33.10;16.57;;;6.70;99.90;;;;;;4974583;28;20567;-72
2023/01/12 08:39:08;;;;;;;35.80;16.47;;;6.70;99.90;;;;;;4958906;28;20206;-72
2023/01/12 08:41:36;;;;;;;30.63;15.77;;;6.70;99.90;;;;;;4959142;28;20222;-73
2023/01/12 08:44:10;;;;;;;29.33;15.30;;;6.60;99.90;;;;;;4974467;28;20199;-73
2023/01/12 08:47:04;;;;;;;30.63;15.53;;;6.60;99.90;;;;;;4974279;28;20194;-73
2023/01/12 08:49:35;;;;;;;32.20;15.47;;;6.60;99.90;;;;;;4944066;28;20232;-74
2023/01/12 08:52:24;;;;;;;34.67;15.90;;;6.60;99.90;;;;;;4974556;28;20533;-75
2023/01/12 08:54:55;;;;;;;30.43;15.20;;;6.60;99.90;;;;;;4974545;28;20202;-79
2023/01/12 08:57:22;;;;;;;33.20;16.17;;;6.60;99.90;;;;;;4974535;28;20244;-79
2023/01/12 08:59:49;;;;;;;27.83;15.27;;;6.70;99.90;;;;;;4958444;28;20606;-75
2023/01/12 09:02:16;;;;;;;30.53;14.70;;;6.70;99.90;;;;;;4975554;28;20672;-75
2023/01/12 09:04:43;;;;;;;34.00;15.97;;;6.80;99.90;;;;;;4975538;28;20592;-73
2023/01/12 09:07:11;;;;;;;31.43;15.30;;;6.80;99.90;;;;;;4973809;28;20304;-76
2023/01/12 09:09:39;;;;;;;31.40;15.23;;;6.90;99.90;;;;;;4975187;28;20222;-75
2023/01/12 09:12:06;;;;;;;27.47;14.07;;;7.00;99.90;;;;;;4975000;28;20195;-75
2023/01/12 09:14:37;;;;;;;29.03;13.87;;;7.00;99.90;;;;;;4958655;28;20219;-76
2023/01/12 09:17:06;;;;;;;30.70;14.20;;;7.00;99.90;;;;;;4958323;28;20192;-74
2023/01/12 09:19:33;;;;;;;25.60;13.63;;;7.00;99.90;;;;;;4973993;28;20304;-75
2023/01/12 09:22:00;;;;;;;29.30;13.77;;;7.00;99.90;;;;;;4973826;28;20285;-73
2023/01/12 09:24:27;;;;;;;28.67;13.80;;;7.00;99.90;;;;;;4957608;28;20222;-73
2023/01/12 09:26:55;;;;;;;27.73;13.47;;;7.10;99.90;;;;;;4957943;28;20201;-73
2023/01/12 09:29:22;;;;;;;26.20;13.50;;;7.20;99.90;;;;;;4942361;28;20411;-73
2023/01/12 09:31:49;;;;;;;25.43;13.20;;;7.30;99.90;;;;;;4957834;28;20227;-78
2023/01/12 09:34:16;;;;;;;30.00;13.80;;;7.40;99.90;;;;;;4958478;28;20201;-76
2023/01/12 09:36:46;;;;;;;27.03;13.33;;;7.40;99.90;;;;;;4974073;28;20207;-76
2023/01/12 09:39:16;;;;;;;26.17;12.37;;;7.40;99.90;;;;;;4974517;28;20705;-74
2023/01/12 09:47:47;;;;;;;23.57;12.23;;;7.40;99.90;;;;;;4973626;28;20237;-77
2023/01/12 09:50:25;;;;;;;24.93;12.27;;;7.30;99.90;;;;;;4957233;28;20225;-73
2023/01/12 09:52:57;;;;;;;26.70;12.30;;;7.30;99.90;;;;;;4974640;28;20309;-72
2023/01/12 09:55:39;;;;;;;24.03;12.13;;;7.30;99.90;;;;;;4973408;28;20604;-74
2023/01/12 09:58:25;;;;;;;24.07;12.50;;;7.30;99.90;;;;;;4975033;28;20232;-73
2023/01/12 10:00:57;;;;;;;30.13;12.73;;;7.40;99.90;;;;;;4974342;28;20671;-74
2023/01/12 10:03:37;;;;;;;23.17;11.90;;;7.40;99.90;;;;;;4974778;28;20634;-74
2023/01/12 10:06:33;;;;;;;23.23;11.37;;;7.30;99.90;;;;;;4957253;28;20195;-76
2023/01/12 10:09:25;;;;;;;20.10;11.57;;;7.40;99.90;;;;;;4974623;28;20319;-76
2023/01/12 10:12:26;;;;;;;22.07;11.20;;;7.40;99.90;;;;;;4942016;28;20210;-76
2023/01/12 10:15:23;;;;;;;25.10;11.90;;;7.40;99.90;;;;;;4973404;28;20616;-77
2023/01/12 10:18:24;;;;;;;25.17;12.43;;;7.50;99.90;;;;;;4941325;28;20206;-73
2023/01/12 10:20:56;;;;;;;24.47;11.90;;;7.50;99.90;;;;;;4972588;28;20218;-76
2023/01/12 10:23:26;;;;;;;27.87;12.83;;;7.40;99.90;;;;;;4974322;28;20223;-76
2023/01/12 10:26:18;;;;;;;22.73;11.90;;;7.40;99.90;;;;;;4974387;28;20195;-77
2023/01/12 10:28:46;;;;;;;24.90;11.73;;;7.40;99.90;;;;;;4974616;28;20252;-76
2023/01/12 10:31:22;;;;;;;22.50;11.43;;;7.40;99.90;;;;;;4957418;28;20199;-75
2023/01/12 10:34:10;;;;;;;23.53;11.07;;;7.50;99.90;;;;;;4941231;28;20204;-74
2023/01/12 10:36:48;;;;;;;21.63;11.10;;;7.50;99.90;;;;;;4973028;28;20223;-74
2023/01/12 10:39:38;;;;;;;21.13;10.23;;;7.50;99.90;;;;;;4974197;28;20697;-75
2023/01/12 10:45:21;;;;;;;21.33;10.20;;;7.60;99.90;;;;;;4974066;28;20264;-73
2023/01/12 10:47:52;;;;;;;22.13;10.03;;;7.50;99.90;;;;;;4956778;28;20200;-74
2023/01/12 10:50:22;;;;;;;18.23;9.70;;;7.60;99.90;;;;;;4974051;28;20652;-75
2023/01/12 10:53:01;;;;;;;23.30;9.50;;;7.60;99.90;;;;;;4974264;28;20191;-72
2023/01/12 10:55:38;;;;;;;19.17;9.30;;;7.60;99.90;;;;;;4973825;28;20190;-75
2023/01/12 10:58:34;;;;;;;15.63;8.73;;;7.70;99.90;;;;;;4972797;28;20236;-73
2023/01/12 11:01:16;;;;;;;16.60;8.93;;;7.70;99.90;;;;;;4940705;28;20204;-73
2023/01/12 11:04:21;;;;;;;16.63;8.80;;;7.80;99.90;;;;;;4960642;28;20216;-74
2023/01/12 11:07:43;;;;;;;20.53;8.87;;;7.80;99.90;;;;;;4971395;28;20210;-72
2023/01/12 11:10:30;;;;;;;15.80;8.47;;;7.80;99.90;;;;;;4894962;29;20681;-75
2023/01/12 11:13:03;;;;;;;15.70;9.20;;;7.80;99.90;;;;;;4895315;29;20231;-74
2023/01/12 11:15:37;;;;;;;15.97;7.63;;;7.80;99.90;;;;;;4894790;29;20423;-74
2023/01/12 11:18:39;;;;;;;15.67;8.00;;;7.80;99.90;;;;;;4895041;29;20204;-71
2023/01/12 11:21:15;;;;;;;17.13;8.03;;;7.90;99.90;;;;;;4880388;29;20618;-73
2023/01/12 11:23:51;;;;;;;15.70;7.20;;;8.00;99.90;;;;;;4895024;29;20190;-75
2023/01/12 11:26:29;;;;;;;14.33;7.47;;;8.00;99.90;;;;;;4894697;29;20211;-76
2023/01/12 11:29:25;;;;;;;12.67;6.20;;;8.00;99.90;;;;;;4894548;29;20325;-78
2023/01/12 11:31:58;;;;;;;14.83;6.67;;;8.00;99.90;;;;;;4895310;29;20215;-77
2023/01/12 11:34:29;;;;;;;16.47;7.20;;;8.00;99.90;;;;;;4894777;29;20250;-73
2023/01/12 11:37:17;;;;;;;13.77;7.40;;;8.00;99.90;;;;;;4898210;29;20706;-80
2023/01/12 11:39:51;;;;;;;13.17;6.83;;;8.10;99.90;;;;;;4959840;28;20586;-78
2023/01/12 11:45:28;;;;;;;14.73;7.20;;;8.10;99.90;;;;;;4978978;28;20200;-72
2023/01/12 11:48:20;;;;;;;11.77;7.00;;;8.10;99.90;;;;;;4975237;28;20208;-74
2023/01/12 11:51:04;;;;;;;15.57;6.33;;;8.20;99.90;;;;;;4968467;28;20215;-75
2023/01/12 11:53:52;;;;;;;13.63;5.90;;;8.30;99.90;;;;;;4994680;28;20200;-74
2023/01/12 11:56:47;;;;;;;12.73;6.27;;;8.40;99.90;;;;;;4974108;28;20279;-73
2023/01/12 11:59:26;;;;;;;9.83;5.73;;;8.70;99.90;;;;;;4973816;28;20253;-73
2023/01/12 12:02:16;;;;;;;12.63;6.40;;;9.00;99.90;;;;;;4957997;28;20196;-70
2023/01/12 12:05:21;;;;;;;11.97;5.80;;;9.30;99.90;;;;;;4973664;28;20212;-76
2023/01/12 12:08:36;;;;;;;15.93;6.20;;;9.30;99.90;;;;;;4958245;28;20208;-74
2023/01/12 12:11:48;;;;;;;11.87;6.13;;;9.50;99.90;;;;;;4973922;28;20625;-71
2023/01/12 12:14:55;;;;;;;14.13;6.30;;;9.50;99.90;;;;;;4957614;28;20207;-74
2023/01/12 12:17:25;;;;;;;14.93;5.80;;;9.40;99.90;;;;;;4957328;28;20243;-74
2023/01/12 12:20:02;;;;;;;9.17;5.60;;;9.30;99.90;;;;;;4957971;28;20208;-73
2023/01/12 12:22:49;;;;;;;11.90;6.27;;;9.10;99.90;;;;;;4957972;28;20201;-74
2023/01/12 12:25:31;;;;;;;12.13;5.77;;;9.10;99.90;;;;;;4957717;28;20300;-73
2023/01/12 12:28:24;;;;;;;10.10;5.80;;;8.90;99.90;;;;;;4978360;28;20201;-74
2023/01/12 12:31:12;;;;;;;14.37;5.97;;;8.90;99.90;;;;;;4978906;28;20597;-75
2023/01/12 12:33:54;;;;;;;14.93;6.70;;;8.80;99.90;;;;;;4978525;28;20575;-76
2023/01/12 12:36:32;;;;;;;8.73;5.43;;;8.70;99.90;;;;;;4978570;28;20197;-76
2023/01/12 12:39:07;;;;;;;12.80;6.20;;;8.70;99.90;;;;;;4978153;28;20645;-76
2023/01/12 12:48:16;;;;;;;10.03;5.53;;;8.50;99.90;;;;;;4977606;28;20238;-75
2023/01/12 12:51:08;;;;;;;12.53;5.80;;;8.50;99.90;;;;;;4977342;28;20265;-75
2023/01/12 12:53:45;;;;;;;11.20;6.30;;;8.60;99.90;;;;;;5010313;28;20213;-73
2023/01/12 12:56:19;;;;;;;9.67;6.17;;;8.40;99.90;;;;;;5009906;28;20191;-75
2023/01/12 12:58:48;;;;;;;11.70;6.20;;;8.40;99.90;;;;;;4995456;28;20729;-75
2023/01/12 13:01:23;;;;;;;11.87;6.73;;;8.50;99.90;;;;;;4977488;28;20569;-73
2023/01/12 13:03:59;;;;;;;12.17;5.87;;;8.40;99.90;;;;;;4995078;28;20229;-76
2023/01/12 13:06:30;;;;;;;10.30;6.10;;;8.40;99.90;;;;;;4995025;28;20206;-73
2023/01/12 13:09:00;;;;;;;12.80;6.17;;;8.40;99.90;;;;;;4994837;28;20278;-74
2023/01/12 13:11:58;;;;;;;11.30;5.57;;;8.40;99.90;;;;;;4978051;28;20197;-76
2023/01/12 13:14:30;;;;;;;12.97;6.20;;;8.30;99.90;;;;;;4994876;28;20199;-76
2023/01/12 13:17:02;;;;;;;10.60;5.80;;;8.60;99.90;;;;;;4977554;28;20240;-77
2023/01/12 13:19:37;;;;;;;10.87;6.10;;;8.90;99.90;;;;;;4995241;28;20196;-74
2023/01/12 13:22:17;;;;;;;12.07;5.20;;;9.00;99.90;;;;;;4994861;28;20203;-77
2023/01/12 13:24:44;;;;;;;13.97;5.90;;;9.20;99.90;;;;;;4994594;28;20211;-75
2023/01/12 13:27:47;;;;;;;11.30;5.70;;;9.40;99.90;;;;;;4993752;28;20235;-76
2023/01/12 13:30:29;;;;;;;11.73;5.87;;;9.60;99.90;;;;;;4993438;28;20239;-78
2023/01/12 13:33:14;;;;;;;9.67;5.93;;;9.80;99.90;;;;;;4994620;28;20264;-74
2023/01/12 13:35:47;;;;;;;13.67;5.63;;;10.00;99.90;;;;;;4977608;28;20206;-76
2023/01/12 13:38:23;;;;;;;10.53;5.60;;;9.90;99.90;;;;;;4993339;28;20271;-75
2023/01/12 13:41:08;;;;;;;9.87;5.13;;;9.80;99.90;;;;;;4976652;28;20229;-72
2023/01/12 13:43:39;;;;;;;11.53;5.63;;;9.80;99.90;;;;;;4976870;28;20269;-76
2023/01/12 13:46:16;;;;;;;11.37;5.30;;;9.90;99.90;;;;;;4994581;28;20195;-74
2023/01/12 13:48:51;;;;;;;10.60;5.27;;;9.90;99.90;;;;;;5009396;28;20223;-75
2023/01/12 13:51:52;;;;;;;9.33;4.67;;;9.80;99.90;;;;;;5009255;28;20224;-75
2023/01/12 13:54:19;;;;;;;8.73;4.70;;;9.60;99.90;;;;;;4994263;28;20185;-73
2023/01/12 13:56:54;;;;;;;9.07;4.70;;;9.60;99.90;;;;;;4993885;28;20557;-77
2023/01/12 14:02:54;;;;;;;8.57;4.10;;;9.80;99.90;;;;;;4967236;28;20272;-74
2023/01/12 14:06:08;;;;;;;7.33;4.43;;;9.70;99.90;;;;;;4972296;28;20567;-75
2023/01/12 14:09:10;;;;;;;8.90;4.00;;;9.50;99.90;;;;;;4913621;29;20680;-72